Stony Point, North Carolina
Current Conditions -  °F | °C
As of 5:15 AM on Saturday 22 Nov 2014 (Local Time) from KSVH Reporting Station
Clear Clear  
Wind Chill: 22°   Ceiling: Unl
Heat Index: 22°   Visibility: 10mi
Dew Point: 16°   Wind: 0mph
Humidity: 78%   Direction: NA
Pressure: 30.51"   Gusts: NA
Location:  35.86°N, 81.05°W
Report Text: KSVH 221015Z AUTO 00000KT 10SM CLR M06/M09 A3051 RMK AO2 T10571089
Loading
Personal Weather Stations






























Interactive Weather Map New forecast layout! Learn more

10-Day Weather Forecast

Advertisements
Track Severe Weather on mobile